createdAt,value
2023-02-09T10:51:06.634Z,5.17
2023-02-09T10:54:01.156Z,3.65
2023-02-09T10:56:48.553Z,4.43
2023-02-09T10:59:26.548Z,4.25
2023-02-09T11:06:02.792Z,4.25
2023-02-09T11:09:11.908Z,3.72
2023-02-09T11:11:46.409Z,4.18
2023-02-09T11:14:21.814Z,4.32
2023-02-09T11:21:44.063Z,4.20
2023-02-09T11:25:02.190Z,5.35
2023-02-09T11:31:27.053Z,5.05
2023-02-09T11:37:46.022Z,5.30
2023-02-09T11:40:26.763Z,4.15
2023-02-09T11:43:15.808Z,3.70
2023-02-09T11:45:46.532Z,5.07
2023-02-09T11:48:32.279Z,4.32
2023-02-09T11:51:09.706Z,4.37
2023-02-09T11:53:41.198Z,4.60
2023-02-09T11:56:09.313Z,4.85
2023-02-09T11:58:54.963Z,5.45
2023-02-09T12:01:41.765Z,3.95
2023-02-09T12:04:29.844Z,3.35
2023-02-09T12:07:08.534Z,3.78
2023-02-09T12:09:47.550Z,3.83
2023-02-09T12:12:14.560Z,3.83
2023-02-09T12:14:56.192Z,4.18
2023-02-09T12:17:29.830Z,3.05
2023-02-09T12:19:59.099Z,4.35
2023-02-09T12:22:35.501Z,3.53
2023-02-09T12:25:11.828Z,3.60
2023-02-09T12:28:10.556Z,4.40
2023-02-09T12:30:41.915Z,3.55
2023-02-09T12:33:27.670Z,3.58
2023-02-09T12:36:10.635Z,3.35
2023-02-09T12:38:52.332Z,3.45
2023-02-09T12:41:26.604Z,3.97
2023-02-09T12:44:12.919Z,2.65
2023-02-09T12:46:48.734Z,3.42
2023-02-09T12:49:15.815Z,2.95
2023-02-09T12:51:54.735Z,3.65
2023-02-09T12:54:32.447Z,2.50
2023-02-09T12:57:15.018Z,3.17
2023-02-09T13:00:05.256Z,2.83
2023-02-09T13:02:49.770Z,3.63
2023-02-09T13:05:33.655Z,2.72
2023-02-09T13:08:21.596Z,2.85
2023-02-09T13:11:19.119Z,3.70
2023-02-09T13:13:56.480Z,3.47
2023-02-09T13:16:29.979Z,3.05
2023-02-09T13:19:19.010Z,3.15
2023-02-09T13:21:58.047Z,3.55
2023-02-09T13:25:00.454Z,5.18
2023-02-09T13:27:33.206Z,3.63
2023-02-09T13:30:01.279Z,4.72
2023-02-09T13:32:44.216Z,3.75
2023-02-09T13:35:29.109Z,4.25
2023-02-09T13:38:01.070Z,4.32
2023-02-09T13:40:33.492Z,4.85
2023-02-09T13:43:07.150Z,4.53
2023-02-09T13:45:50.178Z,4.88
2023-02-09T13:48:29.864Z,3.58
2023-02-09T13:50:59.194Z,4.55
2023-02-09T13:53:28.491Z,3.95
2023-02-09T13:55:58.247Z,3.97
2023-02-09T13:58:35.379Z,3.63
2023-02-09T14:01:07.943Z,3.25
2023-02-09T14:03:57.370Z,3.47
2023-02-09T14:06:40.432Z,2.88
2023-02-09T14:09:20.885Z,3.00
2023-02-09T14:11:53.372Z,3.05
2023-02-09T14:15:03.053Z,2.78
2023-02-09T14:17:32.309Z,3.20
2023-02-09T14:19:59.700Z,2.55
2023-02-09T14:22:39.314Z,3.60
2023-02-09T14:25:28.937Z,3.55
2023-02-09T14:27:56.740Z,3.10
2023-02-09T14:30:31.650Z,2.08
2023-02-09T14:32:59.009Z,2.00
2023-02-09T14:35:30.584Z,1.77
2023-02-09T14:37:59.691Z,3.13
2023-02-09T14:40:31.935Z,3.00
2023-02-09T14:43:25.152Z,2.67
2023-02-09T14:46:02.105Z,3.20
2023-02-09T14:48:31.654Z,3.17
2023-02-09T14:51:02.697Z,2.47
2023-02-09T14:53:31.576Z,2.50
2023-02-09T14:55:59.825Z,3.42
2023-02-09T14:58:31.427Z,1.67
2023-02-09T15:01:00.571Z,1.73
2023-02-09T15:03:27.750Z,1.50
2023-02-09T15:05:57.151Z,1.35
2023-02-09T15:08:25.050Z,0.77
2023-02-09T15:10:57.582Z,0.70
2023-02-09T15:13:24.977Z,1.48
2023-02-09T15:15:52.489Z,0.50
2023-02-09T15:18:26.111Z,0.77
2023-02-09T15:20:53.337Z,0.30
2023-02-09T15:23:20.410Z,0.50
2023-02-09T15:26:20.710Z,0.30
2023-02-09T15:28:48.947Z,0.30
2023-02-09T15:31:16.466Z,0.50
2023-02-09T15:33:43.828Z,0.20
2023-02-09T15:36:25.010Z,0.10
2023-02-09T15:38:52.751Z,0.20
2023-02-09T15:41:44.464Z,0.55
2023-02-09T15:48:08.551Z,0.13
2023-02-09T15:51:14.310Z,0.10
2023-02-09T15:53:51.655Z,0.10
2023-02-09T15:56:22.554Z,0.20
2023-02-09T15:58:54.674Z,0.10
2023-02-09T16:01:45.109Z,0.30
